sensor_id;sensor_type;location;lat;lon;timestamp;P1;durP1;ratioP1;P2;durP2;ratioP2
72891;SDS011;61032;50.782;6.818;2023-12-20T00:00:25;3.20;;;1.90;;
72891;SDS011;61032;50.782;6.818;2023-12-20T00:01:26;2.08;;;1.30;;
72891;SDS011;61032;50.782;6.818;2023-12-20T00:02:26;2.17;;;1.25;;
72891;SDS011;61032;50.782;6.818;2023-12-20T00:03:26;3.47;;;2.30;;
72891;SDS011;61032;50.782;6.818;2023-12-20T00:04:27;2.08;;;1.35;;
72891;SDS011;61032;50.782;6.818;2023-12-20T00:05:27;3.08;;;1.60;;
72891;SDS011;61032;50.782;6.818;2023-12-20T00:06:27;2.05;;;1.33;;
72891;SDS011;61032;50.782;6.818;2023-12-20T00:07:28;2.83;;;1.35;;
72891;SDS011;61032;50.782;6.818;2023-12-20T00:08:28;2.30;;;1.52;;
72891;SDS011;61032;50.782;6.818;2023-12-20T00:09:28;1.85;;;1.02;;
72891;SDS011;61032;50.782;6.818;2023-12-20T00:10:29;2.97;;;1.92;;
72891;SDS011;61032;50.782;6.818;2023-12-20T00:11:29;3.47;;;1.55;;
72891;SDS011;61032;50.782;6.818;2023-12-20T00:12:29;1.70;;;1.17;;
72891;SDS011;61032;50.782;6.818;2023-12-20T00:13:30;2.58;;;1.63;;
72891;SDS011;61032;50.782;6.818;2023-12-20T00:14:30;2.95;;;1.70;;
72891;SDS011;61032;50.782;6.818;2023-12-20T00:15:30;3.58;;;1.42;;
72891;SDS011;61032;50.782;6.818;2023-12-20T00:16:31;2.13;;;1.52;;
72891;SDS011;61032;50.782;6.818;2023-12-20T00:17:31;3.97;;;1.58;;
72891;SDS011;61032;50.782;6.818;2023-12-20T00:18:32;3.40;;;2.22;;
72891;SDS011;61032;50.782;6.818;2023-12-20T00:19:32;3.55;;;1.92;;
72891;SDS011;61032;50.782;6.818;2023-12-20T00:20:32;3.88;;;2.03;;
72891;SDS011;61032;50.782;6.818;2023-12-20T00:21:33;1.58;;;1.10;;
72891;SDS011;61032;50.782;6.818;2023-12-20T00:22:33;3.75;;;1.98;;
72891;SDS011;61032;50.782;6.818;2023-12-20T00:23:33;4.25;;;2.10;;
72891;SDS011;61032;50.782;6.818;2023-12-20T00:24:34;4.50;;;2.25;;
72891;SDS011;61032;50.782;6.818;2023-12-20T00:25:34;3.97;;;1.88;;
72891;SDS011;61032;50.782;6.818;2023-12-20T00:26:35;4.15;;;2.50;;
72891;SDS011;61032;50.782;6.818;2023-12-20T00:27:35;3.05;;;1.75;;
72891;SDS011;61032;50.782;6.818;2023-12-20T00:28:35;3.47;;;1.70;;
72891;SDS011;61032;50.782;6.818;2023-12-20T00:29:36;1.63;;;1.17;;
72891;SDS011;61032;50.782;6.818;2023-12-20T00:30:36;1.50;;;0.98;;
72891;SDS011;61032;50.782;6.818;2023-12-20T00:31:36;3.85;;;2.42;;
72891;SDS011;61032;50.782;6.818;2023-12-20T00:32:38;6.57;;;3.13;;
72891;SDS011;61032;50.782;6.818;2023-12-20T00:33:38;4.68;;;2.65;;
72891;SDS011;61032;50.782;6.818;2023-12-20T00:34:39;2.08;;;1.02;;
72891;SDS011;61032;50.782;6.818;2023-12-20T00:35:40;4.35;;;2.15;;
72891;SDS011;61032;50.782;6.818;2023-12-20T00:36:40;3.20;;;1.52;;
72891;SDS011;61032;50.782;6.818;2023-12-20T00:37:41;1.63;;;1.00;;
72891;SDS011;61032;50.782;6.818;2023-12-20T00:38:42;1.85;;;0.80;;
72891;SDS011;61032;50.782;6.818;2023-12-20T00:39:42;3.38;;;1.45;;
72891;SDS011;61032;50.782;6.818;2023-12-20T00:40:43;2.40;;;1.50;;
72891;SDS011;61032;50.782;6.818;2023-12-20T00:41:44;2.80;;;1.10;;
72891;SDS011;61032;50.782;6.818;2023-12-20T00:42:44;2.63;;;1.33;;
72891;SDS011;61032;50.782;6.818;2023-12-20T00:43:46;2.17;;;1.33;;
72891;SDS011;61032;50.782;6.818;2023-12-20T00:44:47;4.60;;;1.60;;
72891;SDS011;61032;50.782;6.818;2023-12-20T00:45:47;4.10;;;2.08;;
72891;SDS011;61032;50.782;6.818;2023-12-20T00:46:47;3.45;;;1.50;;
72891;SDS011;61032;50.782;6.818;2023-12-20T00:47:48;1.77;;;1.00;;
72891;SDS011;61032;50.782;6.818;2023-12-20T00:48:48;3.28;;;1.83;;
72891;SDS011;61032;50.782;6.818;2023-12-20T00:49:48;3.13;;;1.75;;
72891;SDS011;61032;50.782;6.818;2023-12-20T00:50:49;6.13;;;3.28;;
72891;SDS011;61032;50.782;6.818;2023-12-20T00:51:49;3.22;;;1.42;;
72891;SDS011;61032;50.782;6.818;2023-12-20T00:52:50;1.70;;;1.10;;
72891;SDS011;61032;50.782;6.818;2023-12-20T00:53:50;9.40;;;3.40;;
72891;SDS011;61032;50.782;6.818;2023-12-20T00:54:54;6.32;;;3.15;;
72891;SDS011;61032;50.782;6.818;2023-12-20T00:55:55;1.98;;;1.48;;
72891;SDS011;61032;50.782;6.818;2023-12-20T00:56:55;3.63;;;2.05;;
72891;SDS011;61032;50.782;6.818;2023-12-20T00:57:55;7.68;;;4.20;;
72891;SDS011;61032;50.782;6.818;2023-12-20T00:58:56;3.42;;;1.80;;
72891;SDS011;61032;50.782;6.818;2023-12-20T00:59:56;3.65;;;1.90;;
72891;SDS011;61032;50.782;6.818;2023-12-20T01:00:56;5.43;;;3.33;;
72891;SDS011;61032;50.782;6.818;2023-12-20T01:01:58;6.60;;;2.95;;
72891;SDS011;61032;50.782;6.818;2023-12-20T01:02:58;4.53;;;2.83;;
72891;SDS011;61032;50.782;6.818;2023-12-20T01:03:58;7.20;;;4.15;;
72891;SDS011;61032;50.782;6.818;2023-12-20T01:04:59;5.85;;;3.05;;
72891;SDS011;61032;50.782;6.818;2023-12-20T01:05:59;9.45;;;4.78;;
72891;SDS011;61032;50.782;6.818;2023-12-20T01:06:59;11.20;;;5.25;;
72891;SDS011;61032;50.782;6.818;2023-12-20T01:08:00;5.93;;;3.38;;
72891;SDS011;61032;50.782;6.818;2023-12-20T01:09:02;8.05;;;3.85;;
72891;SDS011;61032;50.782;6.818;2023-12-20T01:10:03;7.25;;;3.83;;
72891;SDS011;61032;50.782;6.818;2023-12-20T01:11:04;8.82;;;4.90;;
72891;SDS011;61032;50.782;6.818;2023-12-20T01:12:05;8.00;;;4.55;;
72891;SDS011;61032;50.782;6.818;2023-12-20T01:13:06;7.85;;;3.88;;
72891;SDS011;61032;50.782;6.818;2023-12-20T01:14:06;7.63;;;4.40;;
72891;SDS011;61032;50.782;6.818;2023-12-20T01:15:06;5.57;;;3.53;;
72891;SDS011;61032;50.782;6.818;2023-12-20T01:16:10;11.00;;;5.25;;
72891;SDS011;61032;50.782;6.818;2023-12-20T01:17:10;6.07;;;3.58;;
72891;SDS011;61032;50.782;6.818;2023-12-20T01:18:11;10.90;;;5.50;;
72891;SDS011;61032;50.782;6.818;2023-12-20T01:19:11;7.50;;;3.75;;
72891;SDS011;61032;50.782;6.818;2023-12-20T01:20:13;8.07;;;4.53;;
72891;SDS011;61032;50.782;6.818;2023-12-20T01:21:13;7.47;;;4.25;;
72891;SDS011;61032;50.782;6.818;2023-12-20T01:22:13;8.40;;;3.78;;
72891;SDS011;61032;50.782;6.818;2023-12-20T01:23:14;7.47;;;3.60;;
72891;SDS011;61032;50.782;6.818;2023-12-20T01:24:14;10.82;;;5.78;;
72891;SDS011;61032;50.782;6.818;2023-12-20T01:25:14;11.48;;;5.38;;
72891;SDS011;61032;50.782;6.818;2023-12-20T01:26:15;10.43;;;4.93;;
72891;SDS011;61032;50.782;6.818;2023-12-20T01:27:15;11.43;;;5.45;;
72891;SDS011;61032;50.782;6.818;2023-12-20T01:28:15;11.07;;;4.50;;
72891;SDS011;61032;50.782;6.818;2023-12-20T01:29:16;12.52;;;5.78;;
72891;SDS011;61032;50.782;6.818;2023-12-20T01:30:16;8.93;;;5.30;;
72891;SDS011;61032;50.782;6.818;2023-12-20T01:31:16;13.43;;;7.13;;
72891;SDS011;61032;50.782;6.818;2023-12-20T01:32:17;8.57;;;4.75;;
72891;SDS011;61032;50.782;6.818;2023-12-20T01:33:17;11.20;;;4.78;;
72891;SDS011;61032;50.782;6.818;2023-12-20T01:34:18;12.23;;;6.10;;
72891;SDS011;61032;50.782;6.818;2023-12-20T01:35:18;11.57;;;5.90;;
72891;SDS011;61032;50.782;6.818;2023-12-20T01:36:18;14.35;;;8.20;;
72891;SDS011;61032;50.782;6.818;2023-12-20T01:37:19;9.20;;;5.30;;
72891;SDS011;61032;50.782;6.818;2023-12-20T01:38:20;6.65;;;4.20;;
72891;SDS011;61032;50.782;6.818;2023-12-20T01:39:20;13.77;;;7.75;;
72891;SDS011;61032;50.782;6.818;2023-12-20T01:40:20;10.43;;;5.40;;
72891;SDS011;61032;50.782;6.818;2023-12-20T01:41:20;11.60;;;5.93;;
72891;SDS011;61032;50.782;6.818;2023-12-20T01:42:21;15.18;;;7.13;;
72891;SDS011;61032;50.782;6.818;2023-12-20T01:43:22;16.77;;;8.43;;
72891;SDS011;61032;50.782;6.818;2023-12-20T01:44:22;12.57;;;5.85;;
72891;SDS011;61032;50.782;6.818;2023-12-20T01:45:23;8.05;;;5.15;;
72891;SDS011;61032;50.782;6.818;2023-12-20T01:46:23;10.73;;;4.93;;
72891;SDS011;61032;50.782;6.818;2023-12-20T01:47:24;13.95;;;6.68;;
72891;SDS011;61032;50.782;6.818;2023-12-20T01:48:25;9.73;;;5.43;;
72891;SDS011;61032;50.782;6.818;2023-12-20T01:49:27;12.32;;;6.03;;
72891;SDS011;61032;50.782;6.818;2023-12-20T01:50:28;12.85;;;6.10;;
72891;SDS011;61032;50.782;6.818;2023-12-20T01:52:31;10.52;;;5.35;;
72891;SDS011;61032;50.782;6.818;2023-12-20T01:53:33;11.55;;;5.63;;
72891;SDS011;61032;50.782;6.818;2023-12-20T01:54:34;14.07;;;6.70;;
72891;SDS011;61032;50.782;6.818;2023-12-20T01:55:36;11.20;;;5.00;;
72891;SDS011;61032;50.782;6.818;2023-12-20T01:56:39;16.38;;;7.93;;
72891;SDS011;61032;50.782;6.818;2023-12-20T01:57:40;9.80;;;4.20;;
72891;SDS011;61032;50.782;6.818;2023-12-20T01:58:43;7.32;;;4.05;;
72891;SDS011;61032;50.782;6.818;2023-12-20T01:59:45;9.32;;;4.93;;
72891;SDS011;61032;50.782;6.818;2023-12-20T02:00:45;7.05;;;3.70;;
72891;SDS011;61032;50.782;6.818;2023-12-20T02:01:46;7.57;;;3.60;;
72891;SDS011;61032;50.782;6.818;2023-12-20T02:02:47;8.13;;;4.43;;
72891;SDS011;61032;50.782;6.818;2023-12-20T02:03:47;7.13;;;4.05;;
72891;SDS011;61032;50.782;6.818;2023-12-20T02:04:48;7.45;;;2.72;;
72891;SDS011;61032;50.782;6.818;2023-12-20T02:05:50;7.53;;;3.38;;
72891;SDS011;61032;50.782;6.818;2023-12-20T02:06:52;15.05;;;4.72;;
72891;SDS011;61032;50.782;6.818;2023-12-20T02:07:52;7.00;;;3.08;;
72891;SDS011;61032;50.782;6.818;2023-12-20T02:08:53;6.35;;;2.83;;
72891;SDS011;61032;50.782;6.818;2023-12-20T02:09:53;6.10;;;2.38;;
72891;SDS011;61032;50.782;6.818;2023-12-20T02:10:54;6.60;;;2.47;;
72891;SDS011;61032;50.782;6.818;2023-12-20T02:11:56;5.00;;;2.60;;
72891;SDS011;61032;50.782;6.818;2023-12-20T02:12:56;6.63;;;2.88;;
72891;SDS011;61032;50.782;6.818;2023-12-20T02:13:56;6.05;;;2.13;;
72891;SDS011;61032;50.782;6.818;2023-12-20T02:14:57;5.50;;;2.13;;
72891;SDS011;61032;50.782;6.818;2023-12-20T02:15:57;6.45;;;2.67;;
72891;SDS011;61032;50.782;6.818;2023-12-20T02:16:57;3.10;;;1.90;;
72891;SDS011;61032;50.782;6.818;2023-12-20T02:17:58;9.45;;;4.72;;
72891;SDS011;61032;50.782;6.818;2023-12-20T02:18:59;4.82;;;2.25;;
72891;SDS011;61032;50.782;6.818;2023-12-20T02:19:59;10.02;;;2.55;;
72891;SDS011;61032;50.782;6.818;2023-12-20T02:20:59;3.33;;;1.88;;
72891;SDS011;61032;50.782;6.818;2023-12-20T02:22:33;6.55;;;2.83;;
72891;SDS011;61032;50.782;6.818;2023-12-20T02:23:26;6.50;;;3.20;;
72891;SDS011;61032;50.782;6.818;2023-12-20T02:24:27;6.30;;;2.00;;
72891;SDS011;61032;50.782;6.818;2023-12-20T02:25:27;10.45;;;3.33;;
72891;SDS011;61032;50.782;6.818;2023-12-20T02:26:27;7.80;;;3.63;;
72891;SDS011;61032;50.782;6.818;2023-12-20T02:27:28;2.95;;;1.38;;
72891;SDS011;61032;50.782;6.818;2023-12-20T02:28:29;6.85;;;1.80;;
72891;SDS011;61032;50.782;6.818;2023-12-20T02:29:29;15.20;;;3.83;;
72891;SDS011;61032;50.782;6.818;2023-12-20T02:30:30;8.00;;;2.80;;
72891;SDS011;61032;50.782;6.818;2023-12-20T02:31:31;10.52;;;3.08;;
72891;SDS011;61032;50.782;6.818;2023-12-20T02:32:31;6.47;;;2.08;;
72891;SDS011;61032;50.782;6.818;2023-12-20T02:33:32;12.82;;;2.78;;
72891;SDS011;61032;50.782;6.818;2023-12-20T02:34:32;6.88;;;2.85;;
72891;SDS011;61032;50.782;6.818;2023-12-20T02:35:32;10.95;;;3.28;;
72891;SDS011;61032;50.782;6.818;2023-12-20T02:36:33;4.13;;;1.70;;
72891;SDS011;61032;50.782;6.818;2023-12-20T02:37:33;8.70;;;2.47;;
72891;SDS011;61032;50.782;6.818;2023-12-20T02:38:34;5.70;;;2.10;;
72891;SDS011;61032;50.782;6.818;2023-12-20T02:39:34;5.85;;;1.73;;
72891;SDS011;61032;50.782;6.818;2023-12-20T02:40:34;7.85;;;2.35;;
72891;SDS011;61032;50.782;6.818;2023-12-20T02:41:35;7.05;;;2.05;;
72891;SDS011;61032;50.782;6.818;2023-12-20T02:42:35;9.25;;;3.15;;
72891;SDS011;61032;50.782;6.818;2023-12-20T02:43:36;10.10;;;3.13;;
72891;SDS011;61032;50.782;6.818;2023-12-20T02:44:37;9.98;;;2.03;;
72891;SDS011;61032;50.782;6.818;2023-12-20T02:45:37;6.80;;;1.77;;
72891;SDS011;61032;50.782;6.818;2023-12-20T02:46:37;9.60;;;2.70;;
72891;SDS011;61032;50.782;6.818;2023-12-20T02:47:38;6.55;;;1.30;;
72891;SDS011;61032;50.782;6.818;2023-12-20T02:48:38;7.55;;;2.45;;
72891;SDS011;61032;50.782;6.818;2023-12-20T02:49:38;4.03;;;1.42;;
72891;SDS011;61032;50.782;6.818;2023-12-20T02:50:39;10.23;;;2.10;;
72891;SDS011;61032;50.782;6.818;2023-12-20T02:51:39;7.78;;;2.20;;
72891;SDS011;61032;50.782;6.818;2023-12-20T02:52:40;5.93;;;2.15;;
72891;SDS011;61032;50.782;6.818;2023-12-20T02:53:40;3.45;;;1.38;;
72891;SDS011;61032;50.782;6.818;2023-12-20T02:54:40;9.07;;;1.88;;
72891;SDS011;61032;50.782;6.818;2023-12-20T02:55:41;6.70;;;1.55;;
72891;SDS011;61032;50.782;6.818;2023-12-20T02:56:41;7.65;;;2.05;;
72891;SDS011;61032;50.782;6.818;2023-12-20T02:57:41;6.32;;;2.75;;
72891;SDS011;61032;50.782;6.818;2023-12-20T02:58:41;6.88;;;2.65;;
72891;SDS011;61032;50.782;6.818;2023-12-20T02:59:42;4.38;;;1.85;;
72891;SDS011;61032;50.782;6.818;2023-12-20T03:00:42;6.75;;;1.30;;
72891;SDS011;61032;50.782;6.818;2023-12-20T03:01:45;8.07;;;2.33;;
72891;SDS011;61032;50.782;6.818;2023-12-20T03:02:46;3.53;;;1.05;;
72891;SDS011;61032;50.782;6.818;2023-12-20T03:03:46;10.48;;;2.53;;
72891;SDS011;61032;50.782;6.818;2023-12-20T03:04:46;8.00;;;2.17;;
72891;SDS011;61032;50.782;6.818;2023-12-20T03:05:47;9.18;;;3.00;;
72891;SDS011;61032;50.782;6.818;2023-12-20T03:06:47;13.57;;;3.30;;
72891;SDS011;61032;50.782;6.818;2023-12-20T03:07:47;5.47;;;1.70;;
72891;SDS011;61032;50.782;6.818;2023-12-20T03:08:48;3.50;;;2.17;;
72891;SDS011;61032;50.782;6.818;2023-12-20T03:09:48;8.23;;;2.55;;
72891;SDS011;61032;50.782;6.818;2023-12-20T03:10:48;9.52;;;3.85;;
72891;SDS011;61032;50.782;6.818;2023-12-20T03:11:48;6.85;;;1.80;;
72891;SDS011;61032;50.782;6.818;2023-12-20T03:12:49;11.00;;;3.55;;
72891;SDS011;61032;50.782;6.818;2023-12-20T03:13:49;9.23;;;2.08;;
72891;SDS011;61032;50.782;6.818;2023-12-20T03:14:49;9.98;;;3.38;;
72891;SDS011;61032;50.782;6.818;2023-12-20T03:15:50;8.85;;;2.42;;
72891;SDS011;61032;50.782;6.818;2023-12-20T03:16:50;5.72;;;1.98;;
72891;SDS011;61032;50.782;6.818;2023-12-20T03:17:51;9.55;;;2.78;;
72891;SDS011;61032;50.782;6.818;2023-12-20T03:18:51;8.10;;;2.22;;
72891;SDS011;61032;50.782;6.818;2023-12-20T03:19:51;13.38;;;2.67;;
72891;SDS011;61032;50.782;6.818;2023-12-20T03:20:52;7.40;;;2.33;;
72891;SDS011;61032;50.782;6.818;2023-12-20T03:21:52;4.18;;;2.28;;
72891;SDS011;61032;50.782;6.818;2023-12-20T03:22:53;10.38;;;2.72;;
72891;SDS011;61032;50.782;6.818;2023-12-20T03:23:53;11.02;;;3.00;;
72891;SDS011;61032;50.782;6.818;2023-12-20T03:24:54;10.38;;;2.70;;
72891;SDS011;61032;50.782;6.818;2023-12-20T03:25:54;9.35;;;2.95;;
72891;SDS011;61032;50.782;6.818;2023-12-20T03:26:55;11.65;;;3.97;;
72891;SDS011;61032;50.782;6.818;2023-12-20T03:27:58;9.73;;;2.85;;
72891;SDS011;61032;50.782;6.818;2023-12-20T03:28:59;7.47;;;2.30;;
72891;SDS011;61032;50.782;6.818;2023-12-20T03:29:59;8.73;;;2.03;;
72891;SDS011;61032;50.782;6.818;2023-12-20T03:30:59;10.68;;;3.60;;
72891;SDS011;61032;50.782;6.818;2023-12-20T03:32:00;4.68;;;2.17;;
72891;SDS011;61032;50.782;6.818;2023-12-20T03:33:00;8.40;;;3.05;;
72891;SDS011;61032;50.782;6.818;2023-12-20T03:34:01;6.00;;;3.25;;
72891;SDS011;61032;50.782;6.818;2023-12-20T03:35:01;5.78;;;1.90;;
72891;SDS011;61032;50.782;6.818;2023-12-20T03:36:01;6.53;;;3.20;;
72891;SDS011;61032;50.782;6.818;2023-12-20T03:37:02;7.35;;;2.38;;
72891;SDS011;61032;50.782;6.818;2023-12-20T03:38:03;9.43;;;1.83;;
72891;SDS011;61032;50.782;6.818;2023-12-20T03:39:03;7.30;;;2.78;;
72891;SDS011;61032;50.782;6.818;2023-12-20T03:40:05;12.73;;;5.40;;
72891;SDS011;61032;50.782;6.818;2023-12-20T03:41:06;7.15;;;2.55;;
72891;SDS011;61032;50.782;6.818;2023-12-20T03:42:07;6.75;;;1.95;;
72891;SDS011;61032;50.782;6.818;2023-12-20T03:43:07;8.40;;;2.60;;
72891;SDS011;61032;50.782;6.818;2023-12-20T03:44:07;5.50;;;1.83;;
72891;SDS011;61032;50.782;6.818;2023-12-20T03:45:08;7.43;;;1.90;;
72891;SDS011;61032;50.782;6.818;2023-12-20T03:46:09;11.13;;;4.47;;
72891;SDS011;61032;50.782;6.818;2023-12-20T03:47:09;9.82;;;2.80;;
72891;SDS011;61032;50.782;6.818;2023-12-20T03:48:09;11.32;;;2.58;;
72891;SDS011;61032;50.782;6.818;2023-12-20T03:49:10;9.40;;;2.22;;
72891;SDS011;61032;50.782;6.818;2023-12-20T03:50:10;6.47;;;2.20;;
72891;SDS011;61032;50.782;6.818;2023-12-20T03:51:11;8.80;;;3.35;;
72891;SDS011;61032;50.782;6.818;2023-12-20T03:52:11;11.00;;;2.85;;
72891;SDS011;61032;50.782;6.818;2023-12-20T03:53:12;11.95;;;2.80;;
72891;SDS011;61032;50.782;6.818;2023-12-20T03:54:12;6.57;;;2.63;;
72891;SDS011;61032;50.782;6.818;2023-12-20T03:55:12;10.95;;;4.43;;
72891;SDS011;61032;50.782;6.818;2023-12-20T03:56:13;9.98;;;2.65;;
72891;SDS011;61032;50.782;6.818;2023-12-20T03:57:13;9.75;;;3.10;;
72891;SDS011;61032;50.782;6.818;2023-12-20T03:58:13;8.20;;;2.15;;
72891;SDS011;61032;50.782;6.818;2023-12-20T03:59:14;8.18;;;1.98;;
72891;SDS011;61032;50.782;6.818;2023-12-20T04:00:14;7.35;;;2.53;;
72891;SDS011;61032;50.782;6.818;2023-12-20T04:01:15;7.88;;;2.25;;
72891;SDS011;61032;50.782;6.818;2023-12-20T04:02:15;7.22;;;2.22;;
72891;SDS011;61032;50.782;6.818;2023-12-20T04:03:17;10.32;;;3.20;;
72891;SDS011;61032;50.782;6.818;2023-12-20T04:04:18;7.95;;;2.55;;
72891;SDS011;61032;50.782;6.818;2023-12-20T04:05:18;8.57;;;3.78;;
72891;SDS011;61032;50.782;6.818;2023-12-20T04:06:19;9.23;;;2.25;;
72891;SDS011;61032;50.782;6.818;2023-12-20T04:07:20;10.02;;;3.05;;
72891;SDS011;61032;50.782;6.818;2023-12-20T04:08:20;6.30;;;3.00;;
72891;SDS011;61032;50.782;6.818;2023-12-20T04:09:20;9.52;;;2.03;;
72891;SDS011;61032;50.782;6.818;2023-12-20T04:10:21;7.75;;;3.03;;
72891;SDS011;61032;50.782;6.818;2023-12-20T04:11:21;8.85;;;2.70;;
72891;SDS011;61032;50.782;6.818;2023-12-20T04:12:21;16.92;;;5.20;;
72891;SDS011;61032;50.782;6.818;2023-12-20T04:13:22;7.82;;;2.78;;
72891;SDS011;61032;50.782;6.818;2023-12-20T04:14:22;6.57;;;2.65;;
72891;SDS011;61032;50.782;6.818;2023-12-20T04:15:22;10.63;;;3.80;;
72891;SDS011;61032;50.782;6.818;2023-12-20T04:16:23;7.20;;;2.50;;
72891;SDS011;61032;50.782;6.818;2023-12-20T04:17:23;11.07;;;3.70;;
72891;SDS011;61032;50.782;6.818;2023-12-20T04:18:23;9.00;;;2.42;;
72891;SDS011;61032;50.782;6.818;2023-12-20T04:19:24;10.82;;;2.97;;
72891;SDS011;61032;50.782;6.818;2023-12-20T04:20:24;9.02;;;3.00;;
72891;SDS011;61032;50.782;6.818;2023-12-20T04:21:24;13.00;;;4.47;;
72891;SDS011;61032;50.782;6.818;2023-12-20T04:22:25;6.45;;;3.08;;
72891;SDS011;61032;50.782;6.818;2023-12-20T04:23:25;9.60;;;2.20;;
72891;SDS011;61032;50.782;6.818;2023-12-20T04:24:25;9.80;;;2.28;;
72891;SDS011;61032;50.782;6.818;2023-12-20T04:25:26;16.25;;;3.60;;
72891;SDS011;61032;50.782;6.818;2023-12-20T04:26:26;10.02;;;3.45;;
72891;SDS011;61032;50.782;6.818;2023-12-20T04:27:26;13.60;;;3.70;;
72891;SDS011;61032;50.782;6.818;2023-12-20T04:28:27;10.05;;;2.45;;
72891;SDS011;61032;50.782;6.818;2023-12-20T04:29:30;11.75;;;3.83;;
72891;SDS011;61032;50.782;6.818;2023-12-20T04:30:30;8.43;;;3.00;;
72891;SDS011;61032;50.782;6.818;2023-12-20T04:31:30;9.82;;;2.47;;
72891;SDS011;61032;50.782;6.818;2023-12-20T04:32:31;8.02;;;2.83;;
72891;SDS011;61032;50.782;6.818;2023-12-20T04:33:31;9.65;;;2.83;;
72891;SDS011;61032;50.782;6.818;2023-12-20T04:34:31;9.35;;;3.08;;
72891;SDS011;61032;50.782;6.818;2023-12-20T04:35:32;8.88;;;3.45;;
72891;SDS011;61032;50.782;6.818;2023-12-20T04:36:32;16.17;;;4.38;;
72891;SDS011;61032;50.782;6.818;2023-12-20T04:37:33;8.60;;;2.72;;
72891;SDS011;61032;50.782;6.818;2023-12-20T04:38:33;11.75;;;4.03;;
72891;SDS011;61032;50.782;6.818;2023-12-20T04:39:33;8.13;;;3.20;;
72891;SDS011;61032;50.782;6.818;2023-12-20T04:40:34;6.38;;;3.42;;
72891;SDS011;61032;50.782;6.818;2023-12-20T04:41:35;7.45;;;2.45;;
72891;SDS011;61032;50.782;6.818;2023-12-20T04:42:35;8.40;;;3.33;;
72891;SDS011;61032;50.782;6.818;2023-12-20T04:43:35;8.23;;;3.20;;
72891;SDS011;61032;50.782;6.818;2023-12-20T04:44:36;10.23;;;3.55;;
72891;SDS011;61032;50.782;6.818;2023-12-20T04:45:36;12.43;;;3.95;;
72891;SDS011;61032;50.782;6.818;2023-12-20T04:46:37;7.57;;;2.78;;
72891;SDS011;61032;50.782;6.818;2023-12-20T04:47:37;8.57;;;2.70;;
72891;SDS011;61032;50.782;6.818;2023-12-20T04:48:37;8.85;;;3.13;;
72891;SDS011;61032;50.782;6.818;2023-12-20T04:49:37;13.88;;;5.18;;
72891;SDS011;61032;50.782;6.818;2023-12-20T04:50:38;7.55;;;3.35;;
72891;SDS011;61032;50.782;6.818;2023-12-20T04:51:38;8.57;;;2.85;;
72891;SDS011;61032;50.782;6.818;2023-12-20T04:52:38;9.00;;;3.53;;
72891;SDS011;61032;50.782;6.818;2023-12-20T04:53:39;10.07;;;3.45;;
72891;SDS011;61032;50.782;6.818;2023-12-20T04:54:39;10.48;;;3.55;;
72891;SDS011;61032;50.782;6.818;2023-12-20T04:55:39;12.15;;;3.63;;
72891;SDS011;61032;50.782;6.818;2023-12-20T04:56:41;11.23;;;3.42;;
72891;SDS011;61032;50.782;6.818;2023-12-20T04:57:41;9.80;;;3.70;;
72891;SDS011;61032;50.782;6.818;2023-12-20T04:58:42;10.40;;;2.92;;
72891;SDS011;61032;50.782;6.818;2023-12-20T04:59:43;9.48;;;3.45;;
72891;SDS011;61032;50.782;6.818;2023-12-20T05:00:43;11.65;;;3.10;;
72891;SDS011;61032;50.782;6.818;2023-12-20T05:01:43;5.80;;;3.08;;
72891;SDS011;61032;50.782;6.818;2023-12-20T05:02:44;8.32;;;2.83;;
72891;SDS011;61032;50.782;6.818;2023-12-20T05:03:44;10.60;;;3.72;;
72891;SDS011;61032;50.782;6.818;2023-12-20T05:04:44;11.68;;;2.80;;
72891;SDS011;61032;50.782;6.818;2023-12-20T05:05:45;14.45;;;3.63;;
72891;SDS011;61032;50.782;6.818;2023-12-20T05:06:45;6.30;;;2.67;;
72891;SDS011;61032;50.782;6.818;2023-12-20T05:07:45;11.40;;;2.92;;
72891;SDS011;61032;50.782;6.818;2023-12-20T05:08:46;18.02;;;5.10;;
72891;SDS011;61032;50.782;6.818;2023-12-20T05:09:46;10.07;;;3.28;;
72891;SDS011;61032;50.782;6.818;2023-12-20T05:10:47;12.45;;;3.88;;
72891;SDS011;61032;50.782;6.818;2023-12-20T05:11:48;13.45;;;3.88;;
72891;SDS011;61032;50.782;6.818;2023-12-20T05:12:48;10.57;;;3.10;;
72891;SDS011;61032;50.782;6.818;2023-12-20T05:13:48;7.75;;;3.63;;
72891;SDS011;61032;50.782;6.818;2023-12-20T05:14:48;8.63;;;2.40;;
72891;SDS011;61032;50.782;6.818;2023-12-20T05:15:49;11.90;;;3.90;;
72891;SDS011;61032;50.782;6.818;2023-12-20T05:16:49;12.80;;;3.95;;
72891;SDS011;61032;50.782;6.818;2023-12-20T05:17:49;8.52;;;3.38;;
72891;SDS011;61032;50.782;6.818;2023-12-20T05:18:50;11.52;;;3.00;;
72891;SDS011;61032;50.782;6.818;2023-12-20T05:20:52;10.35;;;3.65;;
72891;SDS011;61032;50.782;6.818;2023-12-20T05:21:52;6.97;;;3.25;;
72891;SDS011;61032;50.782;6.818;2023-12-20T05:22:53;11.55;;;3.42;;
72891;SDS011;61032;50.782;6.818;2023-12-20T05:23:53;12.25;;;2.78;;
72891;SDS011;61032;50.782;6.818;2023-12-20T05:24:53;18.65;;;5.90;;
72891;SDS011;61032;50.782;6.818;2023-12-20T05:25:54;11.93;;;3.92;;
72891;SDS011;61032;50.782;6.818;2023-12-20T05:26:54;11.15;;;3.88;;
72891;SDS011;61032;50.782;6.818;2023-12-20T05:27:55;7.97;;;2.10;;
72891;SDS011;61032;50.782;6.818;2023-12-20T05:28:56;12.15;;;4.40;;
72891;SDS011;61032;50.782;6.818;2023-12-20T05:29:56;8.93;;;3.60;;
72891;SDS011;61032;50.782;6.818;2023-12-20T05:30:57;7.32;;;2.13;;
72891;SDS011;61032;50.782;6.818;2023-12-20T05:31:58;6.22;;;2.30;;
72891;SDS011;61032;50.782;6.818;2023-12-20T05:32:59;9.88;;;3.05;;
72891;SDS011;61032;50.782;6.818;2023-12-20T05:33:59;9.02;;;2.38;;
72891;SDS011;61032;50.782;6.818;2023-12-20T05:34:59;18.10;;;4.07;;
72891;SDS011;61032;50.782;6.818;2023-12-20T05:35:59;8.95;;;2.30;;
72891;SDS011;61032;50.782;6.818;2023-12-20T05:37:00;7.15;;;2.72;;
72891;SDS011;61032;50.782;6.818;2023-12-20T05:38:01;10.50;;;3.63;;
72891;SDS011;61032;50.782;6.818;2023-12-20T05:39:02;10.23;;;3.85;;
72891;SDS011;61032;50.782;6.818;2023-12-20T05:40:04;10.70;;;3.53;;
72891;SDS011;61032;50.782;6.818;2023-12-20T05:41:04;11.85;;;4.47;;
72891;SDS011;61032;50.782;6.818;2023-12-20T05:42:05;7.10;;;2.88;;
72891;SDS011;61032;50.782;6.818;2023-12-20T05:43:05;5.57;;;2.33;;
72891;SDS011;61032;50.782;6.818;2023-12-20T05:44:06;9.35;;;2.60;;
72891;SDS011;61032;50.782;6.818;2023-12-20T05:45:06;7.47;;;2.30;;
72891;SDS011;61032;50.782;6.818;2023-12-20T05:46:06;14.55;;;3.88;;
72891;SDS011;61032;50.782;6.818;2023-12-20T05:47:07;8.25;;;3.00;;
72891;SDS011;61032;50.782;6.818;2023-12-20T05:48:07;12.23;;;3.15;;
72891;SDS011;61032;50.782;6.818;2023-12-20T05:49:07;10.00;;;2.55;;
72891;SDS011;61032;50.782;6.818;2023-12-20T05:50:08;10.57;;;2.88;;
72891;SDS011;61032;50.782;6.818;2023-12-20T05:51:11;9.27;;;3.38;;
72891;SDS011;61032;50.782;6.818;2023-12-20T05:52:11;11.00;;;2.78;;
72891;SDS011;61032;50.782;6.818;2023-12-20T05:53:12;13.50;;;3.45;;
72891;SDS011;61032;50.782;6.818;2023-12-20T05:54:12;10.10;;;3.28;;
72891;SDS011;61032;50.782;6.818;2023-12-20T05:55:12;10.13;;;2.42;;
72891;SDS011;61032;50.782;6.818;2023-12-20T05:56:13;10.48;;;3.85;;
72891;SDS011;61032;50.782;6.818;2023-12-20T05:57:13;8.50;;;2.95;;
72891;SDS011;61032;50.782;6.818;2023-12-20T05:58:14;9.20;;;2.92;;
72891;SDS011;61032;50.782;6.818;2023-12-20T05:59:14;6.55;;;2.22;;
72891;SDS011;61032;50.782;6.818;2023-12-20T06:00:14;16.77;;;3.40;;
72891;SDS011;61032;50.782;6.818;2023-12-20T06:01:15;8.68;;;3.08;;
72891;SDS011;61032;50.782;6.818;2023-12-20T06:02:17;7.47;;;2.20;;
72891;SDS011;61032;50.782;6.818;2023-12-20T06:03:17;16.00;;;4.80;;
72891;SDS011;61032;50.782;6.818;2023-12-20T06:04:17;9.65;;;3.03;;
72891;SDS011;61032;50.782;6.818;2023-12-20T06:05:18;8.75;;;2.22;;